Time;durP1;ratioP1;P1;durP2;ratioP2;P2;SDS_P1;SDS_P2;PMS_P1;PMS_P2;Temp;Humidity;BMP_temperature;BMP_pressure;BME280_temperature;BME280_humidity;BME280_pressure;Samples;Min_cycle;Max_cycle;Signal;HPM_P1;HPM_P2
2024/02/28 00:01:51;;;;;;;8.35;4.07;;;9.10;99.90;;;;;;5068618;28;20797;-63
2024/02/28 00:04:18;;;;;;;7.30;4.43;;;9.10;99.90;;;;;;5058524;28;20511;-63
2024/02/28 00:06:46;;;;;;;6.63;4.33;;;9.10;1.00;;;;;;5055271;28;20865;-63
2024/02/28 00:09:14;;;;;;;7.22;3.85;;;9.10;1.00;;;;;;5054612;28;20447;-63
2024/02/28 00:11:44;;;;;;;8.63;4.50;;;9.10;1.00;;;;;;5055415;28;20470;-63
2024/02/28 00:14:11;;;;;;;7.80;4.13;;;9.00;34.60;;;;;;5054120;28;20711;-63
2024/02/28 00:16:37;;;;;;;6.90;3.78;;;9.00;99.90;;;;;;5054940;28;20429;-63
2024/02/28 00:19:06;;;;;;;6.90;4.40;;;9.00;99.90;;;;;;5055375;28;20456;-63
2024/02/28 00:21:32;;;;;;;7.30;3.58;;;9.10;99.90;;;;;;5055718;28;20422;-63
2024/02/28 00:23:59;;;;;;;5.85;3.75;;;9.10;99.90;;;;;;5057318;28;20769;-63
2024/02/28 00:26:26;;;;;;;8.07;4.25;;;9.10;99.90;;;;;;5058763;28;20547;-62
2024/02/28 00:28:53;;;;;;;8.18;4.40;;;9.20;1.00;;;;;;5058536;28;20448;-64
2024/02/28 00:31:21;;;;;;;6.55;3.20;;;9.10;39.10;;;;;;5058224;28;20432;-63
2024/02/28 00:33:48;;;;;;;9.43;4.50;;;9.00;99.90;;;;;;5058628;28;20428;-63
2024/02/28 00:36:16;;;;;;;9.63;4.13;;;8.90;99.90;;;;;;5058890;28;20811;-63
2024/02/28 00:38:43;;;;;;;9.53;5.03;;;9.00;99.90;;;;;;5058537;28;20519;-63
2024/02/28 00:41:10;;;;;;;8.30;4.20;;;9.00;98.50;;;;;;5057760;28;20512;-62
2024/02/28 00:43:37;;;;;;;9.70;4.40;;;8.90;99.90;;;;;;5057211;28;20512;-63
2024/02/28 00:46:04;;;;;;;8.50;3.58;;;8.80;1.00;;;;;;5057184;28;20418;-63
2024/02/28 00:48:31;;;;;;;9.88;4.40;;;8.80;99.90;;;;;;5062098;28;20423;-63
2024/02/28 00:50:58;;;;;;;9.13;4.30;;;8.80;99.90;;;;;;5078273;28;20631;-63
2024/02/28 00:53:26;;;;;;;7.07;3.22;;;8.80;1.00;;;;;;5078398;28;20530;-64
2024/02/28 00:55:53;;;;;;;8.05;4.20;;;8.80;1.00;;;;;;5077038;28;20510;-63
2024/02/28 00:58:19;;;;;;;6.95;3.50;;;8.70;99.90;;;;;;5076610;28;20416;-64
2024/02/28 01:00:46;;;;;;;7.40;4.07;;;8.70;1.00;;;;;;5077877;28;20511;-63
2024/02/28 01:03:15;;;;;;;8.00;4.20;;;8.70;1.00;;;;;;5068804;28;20539;-64
2024/02/28 01:05:42;;;;;;;9.27;5.13;;;8.80;1.00;;;;;;5059299;28;20528;-63
2024/02/28 01:08:09;;;;;;;8.55;4.28;;;8.90;1.00;;;;;;5078168;28;20526;-63
2024/02/28 01:10:38;;;;;;;6.38;3.20;;;8.80;99.90;;;;;;5078942;28;20435;-63
2024/02/28 01:13:05;;;;;;;6.85;3.25;;;8.90;1.00;;;;;;5078572;28;20794;-62
2024/02/28 01:15:32;;;;;;;5.85;3.78;;;8.90;99.90;;;;;;5058609;28;20520;-62
2024/02/28 01:17:58;;;;;;;7.60;3.70;;;8.90;99.90;;;;;;5058295;28;20421;-62
2024/02/28 01:20:25;;;;;;;8.27;4.50;;;8.80;1.00;;;;;;5058723;28;20527;-63
2024/02/28 01:22:52;;;;;;;9.55;4.38;;;8.80;99.90;;;;;;5058464;28;20445;-62
2024/02/28 01:25:19;;;;;;;7.07;3.40;;;8.70;1.00;;;;;;5058369;28;20512;-64
2024/02/28 01:27:47;;;;;;;7.63;3.95;;;8.80;1.00;;;;;;5058326;28;20420;-62
2024/02/28 01:30:14;;;;;;;7.30;4.10;;;8.90;1.00;;;;;;5057211;28;20520;-62
2024/02/28 01:32:41;;;;;;;9.52;5.00;;;8.90;99.90;;;;;;5058043;28;20516;-62
2024/02/28 01:35:10;;;;;;;8.48;4.10;;;8.80;1.00;;;;;;5057045;28;20543;-63
2024/02/28 01:37:36;;;;;;;10.65;5.55;;;8.80;99.90;;;;;;5057604;28;20504;-62
2024/02/28 01:40:05;;;;;;;8.27;4.07;;;8.90;1.00;;;;;;5057526;28;20508;-63
2024/02/28 01:42:32;;;;;;;10.93;4.53;;;8.90;1.00;;;;;;5058257;28;20684;-62
2024/02/28 01:45:00;;;;;;;13.05;5.00;;;8.70;57.30;;;;;;5057614;28;20896;-62
2024/02/28 01:47:27;;;;;;;10.32;5.38;;;8.80;1.00;;;;;;5057712;28;20531;-62
2024/02/28 01:49:54;;;;;;;9.93;5.53;;;8.80;99.90;;;;;;5073832;28;20447;-62
2024/02/28 01:52:22;;;;;;;7.78;4.28;;;8.80;99.90;;;;;;5076051;28;20432;-63
2024/02/28 01:54:49;;;;;;;8.18;5.00;;;8.90;99.90;;;;;;5057664;28;20516;-62
2024/02/28 01:57:16;;;;;;;8.50;5.07;;;8.80;70.20;;;;;;5056314;28;20552;-62
2024/02/28 01:59:43;;;;;;;7.47;4.07;;;8.80;1.00;;;;;;5057345;28;20490;-62
2024/02/28 02:02:11;;;;;;;8.25;3.75;;;8.80;1.00;;;;;;5056113;28;20524;-62
2024/02/28 02:04:39;;;;;;;8.63;3.83;;;8.70;1.00;;;;;;5056341;28;20488;-61
2024/02/28 02:07:07;;;;;;;9.83;4.20;;;8.70;1.00;;;;;;5056605;28;20899;-62
2024/02/28 02:09:35;;;;;;;10.38;4.55;;;8.60;1.00;;;;;;5057375;28;20524;-62
2024/02/28 02:12:02;;;;;;;9.82;5.30;;;8.50;99.90;;;;;;5057096;28;20506;-63
2024/02/28 02:14:29;;;;;;;10.60;4.93;;;8.40;99.90;;;;;;5057480;28;20911;-63
2024/02/28 02:16:56;;;;;;;10.07;4.40;;;8.50;99.90;;;;;;5056552;28;20436;-62
2024/02/28 02:19:24;;;;;;;9.00;4.85;;;8.50;99.90;;;;;;5057340;28;20532;-63
2024/02/28 02:21:57;;;;;;;8.30;4.47;;;8.60;99.90;;;;;;5057341;28;20478;-63
2024/02/28 02:24:25;;;;;;;8.63;4.20;;;8.70;99.90;;;;;;5058837;28;20465;-63
2024/02/28 02:26:56;;;;;;;11.68;5.60;;;8.70;99.90;;;;;;5058446;28;20879;-63
2024/02/28 02:29:24;;;;;;;9.10;4.50;;;8.70;99.90;;;;;;5057667;28;20472;-63
2024/02/28 02:31:51;;;;;;;8.43;4.32;;;8.70;99.90;;;;;;5057676;28;20430;-63
2024/02/28 02:34:18;;;;;;;7.87;3.97;;;8.40;99.90;;;;;;5057529;28;20508;-62
2024/02/28 02:36:45;;;;;;;8.02;4.35;;;8.30;1.00;;;;;;5057691;28;20489;-62
2024/02/28 02:39:11;;;;;;;12.00;5.30;;;8.30;1.00;;;;;;5056513;28;20516;-62
2024/02/28 02:41:40;;;;;;;9.88;4.38;;;8.40;1.00;;;;;;5056334;28;20528;-63
2024/02/28 02:44:08;;;;;;;9.45;4.90;;;8.40;1.00;;;;;;5056420;28;20519;-62
2024/02/28 02:46:34;;;;;;;7.28;3.90;;;8.40;1.00;;;;;;5055697;28;20433;-62
2024/02/28 02:49:01;;;;;;;8.18;4.65;;;8.50;1.00;;;;;;5058961;28;20433;-62
2024/02/28 02:51:28;;;;;;;9.43;4.50;;;8.30;1.00;;;;;;5057724;28;20445;-63
2024/02/28 02:53:55;;;;;;;9.48;5.07;;;8.40;1.00;;;;;;5057119;28;20426;-63
2024/02/28 02:56:22;;;;;;;10.90;5.40;;;8.40;1.00;;;;;;5056757;28;20534;-62
2024/02/28 02:58:50;;;;;;;8.23;3.90;;;8.30;1.00;;;;;;5057021;28;20480;-62
2024/02/28 03:01:17;;;;;;;9.60;4.60;;;8.20;1.00;;;;;;5056180;28;20496;-62
2024/02/28 03:03:44;;;;;;;9.23;4.95;;;8.10;1.00;;;;;;5057504;28;20460;-63
2024/02/28 03:06:11;;;;;;;8.35;4.20;;;8.10;1.00;;;;;;5055974;28;20768;-62
2024/02/28 03:08:37;;;;;;;7.18;4.18;;;8.20;1.00;;;;;;5056831;28;20524;-62
2024/02/28 03:11:07;;;;;;;10.07;5.45;;;8.20;1.00;;;;;;5056362;28;20555;-62
2024/02/28 03:13:34;;;;;;;7.90;3.95;;;8.20;1.00;;;;;;5056122;28;20463;-62
2024/02/28 03:16:04;;;;;;;7.38;4.63;;;8.30;1.00;;;;;;5056289;28;20512;-63
2024/02/28 03:18:31;;;;;;;8.70;4.30;;;8.30;1.00;;;;;;5056120;28;20512;-62
2024/02/28 03:20:58;;;;;;;8.65;4.88;;;8.10;1.00;;;;;;5055938;28;20472;-62
2024/02/28 03:23:25;;;;;;;10.02;4.78;;;8.10;1.00;;;;;;5055893;28;20516;-62
2024/02/28 03:25:52;;;;;;;9.53;4.43;;;8.20;1.00;;;;;;5056233;28;20422;-63
2024/02/28 03:28:19;;;;;;;8.05;4.35;;;8.20;1.00;;;;;;5056022;28;20428;-62
2024/02/28 03:30:46;;;;;;;9.50;3.67;;;8.10;1.00;;;;;;5056124;28;20906;-62
2024/02/28 03:33:14;;;;;;;9.25;4.40;;;8.20;1.00;;;;;;5055316;28;20429;-62
2024/02/28 03:35:41;;;;;;;10.48;4.60;;;8.20;1.00;;;;;;5056310;28;20522;-62
2024/02/28 03:38:08;;;;;;;10.65;4.90;;;8.20;1.00;;;;;;5056020;28;20429;-62
2024/02/28 03:40:35;;;;;;;9.48;5.18;;;8.20;1.00;;;;;;5056114;28;20846;-62
2024/02/28 03:43:01;;;;;;;10.45;4.78;;;8.20;1.00;;;;;;5055528;28;20417;-62
2024/02/28 03:45:29;;;;;;;8.40;4.05;;;8.30;1.00;;;;;;5056110;28;20882;-62
2024/02/28 03:47:56;;;;;;;9.32;4.70;;;8.30;1.00;;;;;;5056191;28;20424;-62
2024/02/28 03:50:24;;;;;;;8.88;4.65;;;8.30;1.00;;;;;;5076148;28;20524;-62
2024/02/28 03:52:53;;;;;;;7.68;4.32;;;8.30;1.00;;;;;;5075168;28;20427;-62
2024/02/28 03:55:20;;;;;;;9.05;4.38;;;8.30;1.00;;;;;;5076069;28;20423;-62
2024/02/28 03:57:49;;;;;;;10.80;4.85;;;8.30;1.00;;;;;;5076392;28;20800;-62
2024/02/28 04:00:17;;;;;;;9.20;4.90;;;8.30;1.00;;;;;;5080257;28;20431;-63
2024/02/28 04:02:43;;;;;;;9.75;5.78;;;8.10;1.00;;;;;;5079898;28;20419;-63
2024/02/28 04:05:10;;;;;;;9.17;4.90;;;8.00;1.00;;;;;;5079654;28;20427;-63
2024/02/28 04:07:39;;;;;;;7.80;4.25;;;7.90;1.00;;;;;;5080335;28;20450;-62
2024/02/28 04:10:06;;;;;;;9.70;4.40;;;8.00;1.00;;;;;;5079919;28;20869;-62
2024/02/28 04:12:33;;;;;;;9.10;5.10;;;8.10;1.00;;;;;;5078591;28;20875;-62
2024/02/28 04:15:00;;;;;;;10.10;4.33;;;8.10;1.00;;;;;;5064308;28;20838;-62
2024/02/28 04:17:27;;;;;;;8.18;4.38;;;8.00;1.00;;;;;;5060167;28;20508;-62
2024/02/28 04:19:53;;;;;;;10.23;5.40;;;8.00;1.00;;;;;;5059378;28;20503;-62
2024/02/28 04:22:20;;;;;;;8.77;4.50;;;8.00;1.00;;;;;;5059438;28;20499;-59
2024/02/28 04:24:48;;;;;;;6.88;4.03;;;8.00;1.00;;;;;;5059592;28;20512;-60
2024/02/28 04:27:15;;;;;;;7.93;4.00;;;8.00;1.00;;;;;;5059719;28;20520;-60
2024/02/28 04:29:42;;;;;;;7.45;4.07;;;8.00;1.00;;;;;;5059740;28;20839;-60
2024/02/28 04:32:09;;;;;;;9.90;5.00;;;8.00;1.00;;;;;;5058933;28;20437;-60
2024/02/28 04:34:37;;;;;;;8.73;5.30;;;8.00;1.00;;;;;;5059216;28;20409;-60
2024/02/28 04:37:04;;;;;;;9.85;4.78;;;8.00;1.00;;;;;;5059432;28;20547;-60
2024/02/28 04:39:31;;;;;;;10.00;5.57;;;8.00;1.00;;;;;;5059547;28;20512;-60
2024/02/28 04:41:59;;;;;;;8.25;4.13;;;8.00;1.00;;;;;;5059189;28;20504;-60
2024/02/28 04:44:26;;;;;;;8.63;4.70;;;8.00;1.00;;;;;;5059284;28;20520;-60
2024/02/28 04:46:53;;;;;;;7.10;4.05;;;8.10;1.00;;;;;;5057882;28;20421;-60
2024/02/28 04:49:20;;;;;;;9.60;4.37;;;8.10;1.00;;;;;;5057294;28;20501;-60
2024/02/28 04:51:47;;;;;;;8.63;4.57;;;8.00;1.00;;;;;;5057533;28;20724;-60
2024/02/28 04:54:13;;;;;;;10.02;4.70;;;8.10;1.00;;;;;;5056798;28;20504;-60
2024/02/28 04:56:41;;;;;;;8.07;4.13;;;8.10;1.00;;;;;;5057075;28;20460;-60
2024/02/28 04:59:10;;;;;;;7.38;4.00;;;8.10;1.00;;;;;;5057653;28;20425;-60
2024/02/28 05:01:39;;;;;;;7.72;3.10;;;8.10;1.00;;;;;;5056538;28;20409;-60
2024/02/28 05:04:06;;;;;;;6.35;2.63;;;8.20;1.00;;;;;;5056499;28;20500;-60
2024/02/28 05:06:33;;;;;;;10.03;4.40;;;8.50;1.00;;;;;;5056418;28;20425;-60
2024/02/28 05:08:59;;;;;;;10.82;4.90;;;8.50;99.90;;;;;;5056772;28;20524;-59
2024/02/28 05:11:26;;;;;;;6.82;3.10;;;8.60;50.30;;;;;;5057100;28;20787;-59
2024/02/28 05:13:53;;;;;;;9.32;4.30;;;8.70;99.90;;;;;;5051388;28;20427;-60
2024/02/28 05:16:21;;;;;;;6.82;4.50;;;8.60;1.00;;;;;;5036127;28;21065;-60
2024/02/28 05:18:48;;;;;;;6.45;3.20;;;8.30;1.00;;;;;;5036772;28;20511;-59
2024/02/28 05:21:15;;;;;;;6.25;3.75;;;8.30;99.90;;;;;;5037289;28;20781;-60
2024/02/28 05:23:42;;;;;;;7.18;4.15;;;8.60;99.90;;;;;;5036822;28;20521;-59
2024/02/28 05:26:09;;;;;;;7.85;3.60;;;8.80;1.00;;;;;;5038084;28;20510;-60
2024/02/28 05:28:36;;;;;;;7.55;3.90;;;8.70;1.00;;;;;;5038266;28;20437;-60
2024/02/28 05:31:20;;;;;;;6.30;3.58;;;8.40;1.00;;;;;;5038306;28;20503;-60
2024/02/28 05:33:48;;;;;;;8.05;4.13;;;8.20;99.90;;;;;;5037175;28;20447;-60
2024/02/28 05:36:15;;;;;;;7.32;3.60;;;8.00;1.00;;;;;;5036927;28;20521;-60
2024/02/28 05:38:42;;;;;;;6.55;3.60;;;8.20;1.00;;;;;;5036252;28;20425;-60
2024/02/28 05:41:09;;;;;;;7.85;3.60;;;8.40;1.00;;;;;;5036522;28;20681;-60
2024/02/28 05:43:37;;;;;;;6.75;3.40;;;8.80;99.90;;;;;;5039296;28;20409;-60
2024/02/28 05:46:04;;;;;;;6.67;3.77;;;8.90;1.00;;;;;;5055419;28;20810;-62
2024/02/28 05:48:31;;;;;;;7.18;4.32;;;8.50;1.00;;;;;;5055393;28;20795;-62
2024/02/28 05:51:02;;;;;;;6.17;3.30;;;8.40;99.90;;;;;;5056628;28;20767;-62
2024/02/28 05:53:32;;;;;;;8.43;3.67;;;8.60;99.90;;;;;;5056277;28;20502;-61
2024/02/28 05:55:59;;;;;;;6.88;4.07;;;8.50;99.90;;;;;;5055575;28;20437;-62
2024/02/28 05:58:26;;;;;;;7.93;3.53;;;8.40;90.90;;;;;;5056647;28;20520;-62
2024/02/28 06:00:53;;;;;;;6.15;3.03;;;8.40;99.90;;;;;;5057888;28;20503;-62
2024/02/28 06:03:20;;;;;;;7.07;3.95;;;8.70;99.90;;;;;;5056547;28;20519;-62
2024/02/28 06:05:47;;;;;;;7.50;3.60;;;9.00;99.90;;;;;;5054298;28;20512;-62
2024/02/28 06:08:15;;;;;;;7.80;3.60;;;9.00;24.40;;;;;;5056294;28;20425;-61
2024/02/28 06:10:43;;;;;;;6.90;3.50;;;9.10;1.00;;;;;;5055878;28;20820;-62
2024/02/28 06:13:13;;;;;;;4.90;2.83;;;9.30;99.90;;;;;;5057138;28;20440;-60
2024/02/28 06:15:43;;;;;;;8.68;4.22;;;9.10;1.00;;;;;;5049691;28;20487;-61
2024/02/28 06:18:10;;;;;;;6.75;3.60;;;9.10;99.90;;;;;;5055691;28;20425;-61
2024/02/28 06:20:37;;;;;;;7.55;3.50;;;9.10;1.00;;;;;;5054757;28;20532;-60
2024/02/28 06:23:04;;;;;;;9.32;4.70;;;9.10;1.00;;;;;;5056216;28;20421;-61
2024/02/28 06:25:34;;;;;;;6.03;3.60;;;9.20;1.00;;;;;;5055884;28;20728;-60
2024/02/28 06:28:06;;;;;;;8.82;5.00;;;9.30;17.40;;;;;;5055658;28;20433;-60
2024/02/28 06:30:33;;;;;;;10.23;5.15;;;9.30;5.40;;;;;;5056126;28;20897;-61
2024/02/28 06:33:00;;;;;;;8.33;4.20;;;8.90;99.90;;;;;;5056616;28;20531;-61
2024/02/28 06:35:27;;;;;;;7.65;4.70;;;8.60;1.00;;;;;;5057151;28;20492;-60
2024/02/28 06:37:54;;;;;;;7.70;4.57;;;8.60;38.10;;;;;;5053909;28;20457;-61
2024/02/28 06:40:21;;;;;;;7.45;3.70;;;8.30;1.00;;;;;;5056707;28;20460;-61
2024/02/28 06:42:49;;;;;;;7.97;5.15;;;8.40;1.00;;;;;;5056980;28;20487;-61
2024/02/28 06:45:17;;;;;;;8.27;4.88;;;8.40;1.00;;;;;;5056364;28;20479;-61
2024/02/28 06:47:44;;;;;;;7.63;4.20;;;8.20;38.00;;;;;;5054445;28;20429;-60
2024/02/28 06:50:12;;;;;;;8.48;3.70;;;8.40;99.90;;;;;;5055116;28;20429;-60
2024/02/28 06:52:38;;;;;;;9.32;4.38;;;8.70;1.00;;;;;;5053874;28;20511;-60
2024/02/28 06:55:10;;;;;;;6.22;3.80;;;8.90;71.70;;;;;;5053431;28;20998;-61
2024/02/28 06:57:36;;;;;;;7.63;4.43;;;9.20;1.00;;;;;;5053299;28;20451;-61
2024/02/28 07:00:08;;;;;;;6.72;4.00;;;9.20;1.00;;;;;;5055362;28;20524;-61
2024/02/28 07:02:35;;;;;;;7.65;4.57;;;9.20;99.90;;;;;;5075442;28;20447;-61
2024/02/28 07:05:02;;;;;;;9.07;4.35;;;9.10;99.90;;;;;;5075610;28;20434;-60
2024/02/28 07:07:30;;;;;;;7.80;4.50;;;9.20;99.90;;;;;;5074570;28;20435;-61
2024/02/28 07:09:57;;;;;;;9.93;4.72;;;9.20;99.90;;;;;;5074906;28;20538;-61
2024/02/28 07:12:24;;;;;;;7.97;4.05;;;9.30;99.90;;;;;;5075131;28;20435;-60
2024/02/28 07:14:51;;;;;;;8.45;4.25;;;9.30;99.90;;;;;;5061789;28;20816;-61
2024/02/28 07:17:19;;;;;;;6.72;3.88;;;9.30;99.90;;;;;;5056803;28;20425;-60
2024/02/28 07:19:46;;;;;;;9.77;4.90;;;9.40;1.00;;;;;;5056636;28;20477;-59
2024/02/28 07:22:13;;;;;;;10.00;4.70;;;9.20;1.00;;;;;;5056101;28;20841;-60
2024/02/28 07:24:41;;;;;;;9.68;4.30;;;9.10;1.00;;;;;;5056558;28;20433;-60
2024/02/28 07:27:09;;;;;;;8.10;4.43;;;9.00;1.00;;;;;;5060297;28;20520;-61
2024/02/28 07:29:37;;;;;;;8.95;5.35;;;9.00;99.90;;;;;;5076315;28;20510;-61
2024/02/28 07:32:05;;;;;;;9.23;4.32;;;9.10;99.90;;;;;;5062957;28;20831;-60
2024/02/28 07:34:33;;;;;;;8.63;4.68;;;9.20;42.30;;;;;;5047097;28;20606;-61
2024/02/28 07:37:00;;;;;;;9.27;4.47;;;9.10;99.90;;;;;;5052864;28;20523;-61
2024/02/28 07:39:27;;;;;;;8.57;4.78;;;9.10;1.00;;;;;;5055554;28;20465;-60
2024/02/28 07:41:54;;;;;;;9.63;5.20;;;9.10;99.90;;;;;;5050823;28;20527;-61
2024/02/28 07:44:21;;;;;;;5.65;4.15;;;9.00;99.90;;;;;;5055166;28;20459;-61
2024/02/28 07:46:50;;;;;;;10.80;5.27;;;9.20;99.90;;;;;;5048065;28;20579;-60
2024/02/28 07:49:17;;;;;;;7.20;4.10;;;9.10;1.00;;;;;;5051147;28;20446;-60
2024/02/28 07:51:45;;;;;;;8.13;4.60;;;9.00;1.00;;;;;;5050891;28;20559;-60
2024/02/28 07:54:12;;;;;;;9.53;4.90;;;8.90;1.00;;;;;;5051095;28;20524;-60
2024/02/28 07:56:39;;;;;;;9.15;5.07;;;8.60;1.00;;;;;;5045663;28;20524;-59
2024/02/28 07:59:06;;;;;;;8.05;4.25;;;8.50;99.90;;;;;;5049767;28;20828;-61
2024/02/28 08:01:33;;;;;;;8.15;3.97;;;8.90;99.90;;;;;;5044755;28;20871;-60
2024/02/28 08:04:01;;;;;;;12.05;4.50;;;9.10;1.00;;;;;;5059862;28;20534;-59
2024/02/28 08:06:28;;;;;;;5.22;3.30;;;9.20;99.90;;;;;;5053552;28;20445;-59
2024/02/28 08:08:56;;;;;;;9.10;4.40;;;9.40;1.00;;;;;;5054755;28;20440;-59
2024/02/28 08:11:24;;;;;;;10.60;5.23;;;9.40;99.90;;;;;;5050327;28;20456;-59
2024/02/28 08:13:52;;;;;;;8.40;4.40;;;9.30;1.00;;;;;;5057343;28;20441;-59
2024/02/28 08:16:18;;;;;;;7.75;4.50;;;9.10;1.00;;;;;;5057170;28;20440;-59
2024/02/28 08:18:46;;;;;;;8.05;4.50;;;9.20;1.00;;;;;;5058304;28;20532;-59
2024/02/28 08:21:13;;;;;;;8.10;3.92;;;9.40;1.00;;;;;;5060942;28;20427;-59
2024/02/28 08:23:40;;;;;;;8.57;4.35;;;9.60;1.00;;;;;;5051459;28;20942;-60
2024/02/28 08:26:09;;;;;;;10.63;5.10;;;9.80;1.00;;;;;;5058207;28;20531;-59
2024/02/28 08:28:36;;;;;;;11.00;4.88;;;9.80;1.00;;;;;;5063642;28;20419;-60
2024/02/28 08:31:03;;;;;;;8.13;4.22;;;9.60;1.00;;;;;;5058163;28;20805;-60
2024/02/28 08:33:30;;;;;;;6.82;4.80;;;9.70;1.00;;;;;;5064066;28;20830;-59
2024/02/28 08:35:57;;;;;;;9.52;5.55;;;9.30;17.90;;;;;;5061082;28;20540;-60
2024/02/28 08:38:24;;;;;;;12.13;6.10;;;9.10;1.00;;;;;;5064158;28;20527;-59
2024/02/28 08:40:51;;;;;;;10.13;4.82;;;9.10;1.00;;;;;;5047779;28;20437;-60
2024/02/28 08:43:19;;;;;;;10.07;6.60;;;9.20;1.00;;;;;;5061191;28;20875;-59
2024/02/28 08:45:46;;;;;;;10.80;5.43;;;9.00;1.00;;;;;;5064183;28;20420;-60
2024/02/28 08:48:13;;;;;;;10.57;6.20;;;8.90;1.00;;;;;;5061328;28;20879;-60
2024/02/28 08:50:40;;;;;;;9.00;5.47;;;8.80;1.00;;;;;;5064954;28;20475;-60
2024/02/28 08:53:07;;;;;;;10.63;5.85;;;8.70;1.00;;;;;;5061681;28;20626;-60
2024/02/28 08:55:34;;;;;;;9.98;5.43;;;8.70;1.00;;;;;;5054508;28;20508;-60
2024/02/28 08:58:01;;;;;;;8.32;4.90;;;8.70;1.00;;;;;;5061502;28;20735;-60
2024/02/28 09:00:29;;;;;;;9.77;5.65;;;8.90;1.00;;;;;;5063711;28;20976;-60
2024/02/28 09:02:57;;;;;;;9.98;5.97;;;8.90;1.00;;;;;;5065844;28;20516;-60
2024/02/28 09:05:24;;;;;;;10.57;5.70;;;8.70;99.90;;;;;;5048987;28;20437;-60
2024/02/28 09:07:54;;;;;;;11.52;6.10;;;8.70;99.90;;;;;;5048242;28;20441;-60
2024/02/28 09:10:24;;;;;;;9.90;6.07;;;8.70;99.90;;;;;;5048337;28;20443;-60
2024/02/28 09:12:50;;;;;;;10.63;5.05;;;8.50;99.90;;;;;;5049589;28;20448;-61
2024/02/28 09:15:17;;;;;;;9.57;6.28;;;8.60;1.00;;;;;;5050662;28;20487;-60
2024/02/28 09:17:48;;;;;;;8.32;4.95;;;8.70;99.90;;;;;;5050020;28;20794;-60
2024/02/28 09:20:15;;;;;;;11.60;6.20;;;8.90;99.90;;;;;;5049006;28;20446;-60
2024/02/28 09:22:42;;;;;;;10.77;6.32;;;9.00;99.90;;;;;;5049645;28;20473;-60
2024/02/28 09:25:09;;;;;;;10.55;5.10;;;9.00;1.00;;;;;;5050602;28;20441;-60
2024/02/28 09:27:36;;;;;;;8.17;4.70;;;9.00;1.00;;;;;;5048546;28;20439;-60
2024/02/28 09:30:04;;;;;;;10.47;5.00;;;9.00;1.00;;;;;;5052406;28;20740;-60
2024/02/28 09:32:30;;;;;;;9.63;5.72;;;8.90;99.90;;;;;;5049136;28;20536;-60
2024/02/28 09:34:59;;;;;;;9.10;5.90;;;8.90;1.00;;;;;;5044863;28;20525;-61
2024/02/28 09:37:26;;;;;;;11.85;6.20;;;8.60;1.00;;;;;;5041322;28;20451;-60
2024/02/28 09:39:53;;;;;;;9.32;4.85;;;8.50;99.90;;;;;;5048570;28;20912;-60
2024/02/28 09:42:20;;;;;;;9.55;5.28;;;8.80;1.00;;;;;;5052066;28;20482;-61
2024/02/28 09:44:47;;;;;;;10.35;5.47;;;9.40;99.90;;;;;;5050371;28;20797;-61
2024/02/28 09:47:15;;;;;;;9.70;5.40;;;9.50;1.00;;;;;;5046431;28;20443;-61
2024/02/28 09:49:43;;;;;;;7.87;4.57;;;9.50;1.00;;;;;;5046648;28;20419;-60
2024/02/28 09:52:12;;;;;;;6.95;4.50;;;9.60;99.90;;;;;;5047930;28;20525;-61
2024/02/28 09:54:38;;;;;;;10.65;5.45;;;9.30;1.00;;;;;;5052996;28;20963;-60
2024/02/28 09:57:06;;;;;;;10.20;5.35;;;8.90;99.90;;;;;;5047974;28;20524;-61
2024/02/28 09:59:36;;;;;;;10.13;5.05;;;9.00;99.90;;;;;;5044806;28;20441;-61
2024/02/28 10:02:06;;;;;;;8.63;4.65;;;9.00;1.00;;;;;;5036357;28;20526;-60
2024/02/28 10:04:34;;;;;;;7.35;4.00;;;9.10;99.90;;;;;;5047124;28;20440;-60
2024/02/28 10:07:14;;;;;;;12.73;5.75;;;9.30;1.00;;;;;;5051454;28;20481;-61
2024/02/28 10:09:41;;;;;;;8.18;4.22;;;9.20;1.00;;;;;;5035518;28;20541;-60
2024/02/28 10:12:08;;;;;;;8.15;3.58;;;9.00;1.00;;;;;;5047319;28;20909;-61
2024/02/28 10:14:35;;;;;;;8.80;4.15;;;9.20;99.90;;;;;;5054529;28;20540;-62
2024/02/28 10:17:02;;;;;;;7.45;4.10;;;9.40;1.00;;;;;;5050691;28;20495;-61
2024/02/28 10:19:29;;;;;;;6.55;3.40;;;9.50;1.00;;;;;;5046574;28;20442;-62
2024/02/28 10:21:57;;;;;;;5.93;3.45;;;9.60;1.00;;;;;;5049265;28;20441;-60
2024/02/28 10:24:28;;;;;;;6.68;2.90;;;9.50;99.90;;;;;;5046111;28;20432;-60
2024/02/28 10:26:56;;;;;;;5.22;2.17;;;9.60;99.90;;;;;;5044676;28;20553;-59
2024/02/28 10:29:23;;;;;;;6.27;2.80;;;9.50;1.00;;;;;;5047263;28;20549;-61
2024/02/28 10:31:50;;;;;;;6.28;2.92;;;9.20;99.90;;;;;;5046229;28;20514;-61
2024/02/28 10:34:18;;;;;;;7.22;2.47;;;9.20;99.90;;;;;;5047415;28;20471;-61
2024/02/28 10:36:46;;;;;;;5.28;2.80;;;9.40;99.90;;;;;;5047027;28;20436;-61
2024/02/28 10:39:13;;;;;;;4.72;2.33;;;9.40;1.00;;;;;;5045328;28;20510;-61
2024/02/28 10:41:43;;;;;;;5.35;2.63;;;9.20;1.00;;;;;;5049305;28;20463;-59
2024/02/28 10:44:10;;;;;;;7.97;3.22;;;9.10;43.30;;;;;;5042099;28;20927;-60
2024/02/28 10:46:39;;;;;;;7.20;3.13;;;9.20;99.90;;;;;;5044372;28;20440;-60
2024/02/28 10:49:07;;;;;;;7.05;3.92;;;9.40;99.90;;;;;;5046503;28;20498;-60
2024/02/28 10:51:36;;;;;;;4.55;2.28;;;9.40;1.00;;;;;;5045710;28;20521;-60
2024/02/28 10:54:12;;;;;;;6.50;3.50;;;9.80;1.00;;;;;;5047562;28;20692;-60
2024/02/28 10:56:41;;;;;;;7.28;3.20;;;9.80;1.00;;;;;;5046706;28;20441;-61
2024/02/28 10:59:09;;;;;;;7.43;3.28;;;9.70;1.00;;;;;;5047875;28;20537;-60
2024/02/28 11:01:38;;;;;;;4.35;3.15;;;9.60;1.00;;;;;;5046437;28;20806;-60
2024/02/28 11:04:06;;;;;;;7.60;2.70;;;9.60;1.00;;;;;;5042746;28;20439;-60
2024/02/28 11:06:33;;;;;;;6.22;3.10;;;9.60;1.00;;;;;;5044388;28;20470;-60
2024/02/28 11:09:01;;;;;;;8.38;3.85;;;9.70;1.00;;;;;;5044291;28;20470;-60
2024/02/28 11:11:32;;;;;;;5.43;3.00;;;9.70;1.00;;;;;;5044842;28;20469;-60
2024/02/28 11:14:01;;;;;;;6.22;3.88;;;9.90;1.00;;;;;;5050589;28;20831;-61
2024/02/28 11:16:29;;;;;;;8.52;3.78;;;9.80;1.00;;;;;;5046558;28;20421;-60
2024/02/28 11:18:56;;;;;;;8.45;4.35;;;9.60;1.00;;;;;;5045032;28;20466;-61
2024/02/28 11:21:27;;;;;;;7.75;4.00;;;9.50;1.00;;;;;;5047701;28;20447;-60
2024/02/28 11:23:58;;;;;;;8.40;3.28;;;9.40;1.00;;;;;;5048393;28;20490;-60
2024/02/28 11:26:26;;;;;;;6.85;3.40;;;9.40;1.00;;;;;;5043895;28;20861;-60
2024/02/28 11:28:53;;;;;;;7.20;3.47;;;9.30;1.00;;;;;;5047727;28;20865;-61
2024/02/28 11:31:22;;;;;;;7.88;3.80;;;9.40;91.00;;;;;;5045455;28;20423;-60
2024/02/28 11:33:49;;;;;;;8.30;4.67;;;9.40;99.90;;;;;;5044678;28;20839;-60
2024/02/28 11:36:16;;;;;;;9.95;4.90;;;9.40;99.90;;;;;;5044764;28;20521;-63
2024/02/28 11:38:43;;;;;;;7.65;4.50;;;9.40;99.90;;;;;;5045379;28;20541;-61
2024/02/28 11:41:10;;;;;;;7.35;4.28;;;9.20;99.90;;;;;;5047972;28;20440;-62
2024/02/28 11:43:36;;;;;;;7.60;3.50;;;9.10;99.90;;;;;;5044850;28;20515;-61
2024/02/28 11:46:09;;;;;;;7.97;4.93;;;9.10;99.90;;;;;;5043423;28;20516;-61
2024/02/28 11:48:38;;;;;;;7.97;4.05;;;9.30;99.90;;;;;;5043339;28;20433;-59
2024/02/28 11:51:05;;;;;;;6.68;3.50;;;9.20;99.90;;;;;;5044241;28;20423;-58
2024/02/28 11:53:32;;;;;;;8.00;4.75;;;9.10;99.90;;;;;;5044337;28;20509;-59
2024/02/28 11:56:00;;;;;;;10.52;4.15;;;9.00;99.90;;;;;;5044171;28;20449;-57
2024/02/28 11:58:27;;;;;;;7.88;3.83;;;8.90;1.00;;;;;;5044498;28;20512;-58
2024/02/28 12:00:54;;;;;;;8.90;4.13;;;9.00;1.00;;;;;;5043778;28;20463;-58
2024/02/28 12:03:22;;;;;;;7.93;4.25;;;9.10;1.00;;;;;;5043813;28;20527;-57
2024/02/28 12:05:50;;;;;;;9.60;4.15;;;9.00;99.90;;;;;;5046167;28;20429;-59
2024/02/28 12:08:19;;;;;;;9.57;3.50;;;9.00;99.90;;;;;;5046369;28;20457;-58
2024/02/28 12:10:46;;;;;;;8.10;3.95;;;9.00;99.90;;;;;;5040884;28;20431;-58
2024/02/28 12:13:18;;;;;;;9.80;4.22;;;9.00;99.90;;;;;;5044725;28;20879;-58
2024/02/28 12:15:45;;;;;;;8.82;3.65;;;8.80;99.90;;;;;;5049528;28;20561;-56
2024/02/28 12:18:12;;;;;;;7.73;3.80;;;8.80;1.00;;;;;;5043819;28;20429;-58
2024/02/28 12:20:39;;;;;;;6.90;4.20;;;8.90;1.00;;;;;;5052086;28;20468;-58
2024/02/28 12:23:08;;;;;;;7.43;3.30;;;8.90;1.00;;;;;;5058825;28;20516;-59
2024/02/28 12:25:36;;;;;;;9.60;4.55;;;9.00;1.00;;;;;;5059287;28;20409;-58
2024/02/28 12:28:05;;;;;;;8.05;4.75;;;9.00;1.00;;;;;;5058610;28;20437;-59
2024/02/28 12:30:32;;;;;;;6.43;3.63;;;9.10;99.90;;;;;;5058821;28;20440;-57
2024/02/28 12:33:00;;;;;;;7.55;3.92;;;9.10;99.90;;;;;;5058969;28;20435;-59
2024/02/28 12:35:27;;;;;;;7.07;3.25;;;9.20;99.90;;;;;;5054903;28;20433;-59
2024/02/28 12:37:53;;;;;;;6.97;3.90;;;9.20;94.10;;;;;;5056466;28;20535;-58
2024/02/28 12:40:25;;;;;;;8.02;3.85;;;9.10;99.90;;;;;;5057911;28;20425;-58
2024/02/28 12:42:56;;;;;;;7.70;3.70;;;9.10;99.90;;;;;;5051348;28;20440;-58
2024/02/28 12:45:23;;;;;;;9.30;3.15;;;9.10;99.90;;;;;;5058167;28;20452;-58
2024/02/28 12:47:50;;;;;;;8.77;4.03;;;9.10;99.90;;;;;;5044299;28;20533;-58
2024/02/28 12:50:17;;;;;;;7.22;4.07;;;9.10;99.90;;;;;;5049190;28;20555;-59
2024/02/28 12:52:44;;;;;;;9.32;4.30;;;9.10;99.90;;;;;;5048152;28;20809;-58
2024/02/28 12:55:11;;;;;;;6.57;3.58;;;8.70;99.90;;;;;;5048647;28;20458;-59
2024/02/28 12:57:39;;;;;;;8.60;3.80;;;8.70;13.80;;;;;;5051391;28;20438;-59
2024/02/28 13:00:08;;;;;;;8.05;4.40;;;8.90;1.00;;;;;;5054162;28;20696;-58
2024/02/28 13:02:37;;;;;;;9.82;4.40;;;9.00;1.00;;;;;;5045935;28;20451;-59
2024/02/28 13:05:05;;;;;;;7.75;4.10;;;9.10;1.00;;;;;;5053690;28;20496;-58